sensor_id;sensor_type;location;lat;lon;timestamp;temperature;humidity
67868;SHT31;54672;46.096;14.470;2023-07-13T06:25:14;26.11;70.42
67868;SHT31;54672;46.096;14.470;2023-07-13T06:27:39;27.00;67.65
67868;SHT31;54672;46.096;14.470;2023-07-13T06:30:05;27.46;66.20
67868;SHT31;54672;46.096;14.470;2023-07-13T06:32:31;27.58;67.37
67868;SHT31;54672;46.096;14.470;2023-07-13T06:34:56;27.81;65.70
67868;SHT31;54672;46.096;14.470;2023-07-13T06:37:22;27.57;66.21
67868;SHT31;54672;46.096;14.470;2023-07-13T06:39:47;27.13;69.10
67868;SHT31;54672;46.096;14.470;2023-07-13T06:42:12;27.77;67.59
67868;SHT31;54672;46.096;14.470;2023-07-13T06:44:38;28.55;64.54
67868;SHT31;54672;46.096;14.470;2023-07-13T06:47:03;28.60;63.63
67868;SHT31;54672;46.096;14.470;2023-07-13T06:49:29;27.62;65.44
67868;SHT31;54672;46.096;14.470;2023-07-13T06:51:54;27.02;68.29
67868;SHT31;54672;46.096;14.470;2023-07-13T06:54:20;27.91;66.56
67868;SHT31;54672;46.096;14.470;2023-07-13T06:56:45;26.83;68.47
67868;SHT31;54672;46.096;14.470;2023-07-13T06:59:11;26.38;69.67
67868;SHT31;54672;46.096;14.470;2023-07-13T07:01:36;25.66;72.59
67868;SHT31;54672;46.096;14.470;2023-07-13T07:04:03;27.89;66.21
67868;SHT31;54672;46.096;14.470;2023-07-13T07:06:28;29.46;62.70
67868;SHT31;54672;46.096;14.470;2023-07-13T07:08:53;29.44;62.96
67868;SHT31;54672;46.096;14.470;2023-07-13T07:11:23;28.83;65.21
67868;SHT31;54672;46.096;14.470;2023-07-13T07:13:49;30.26;62.26
67868;SHT31;54672;46.096;14.470;2023-07-13T07:16:16;31.19;59.50
67868;SHT31;54672;46.096;14.470;2023-07-13T07:18:41;30.45;58.87
67868;SHT31;54672;46.096;14.470;2023-07-13T07:21:07;30.67;59.58
67868;SHT31;54672;46.096;14.470;2023-07-13T07:23:32;31.32;59.01
67868;SHT31;54672;46.096;14.470;2023-07-13T07:25:58;31.74;55.68
67868;SHT31;54672;46.096;14.470;2023-07-13T07:28:23;32.56;54.39
67868;SHT31;54672;46.096;14.470;2023-07-13T07:30:49;32.32;55.09
67868;SHT31;54672;46.096;14.470;2023-07-13T07:33:17;31.05;56.53
67868;SHT31;54672;46.096;14.470;2023-07-13T07:35:42;29.82;60.87
67868;SHT31;54672;46.096;14.470;2023-07-13T07:38:08;29.76;61.19
67868;SHT31;54672;46.096;14.470;2023-07-13T07:40:37;29.10;62.67
67868;SHT31;54672;46.096;14.470;2023-07-13T07:43:02;28.94;62.46
67868;SHT31;54672;46.096;14.470;2023-07-13T07:45:28;29.26;61.19
67868;SHT31;54672;46.096;14.470;2023-07-13T07:47:53;28.74;62.23
67868;SHT31;54672;46.096;14.470;2023-07-13T07:50:20;28.39;63.33
67868;SHT31;54672;46.096;14.470;2023-07-13T07:52:45;27.68;65.00
67868;SHT31;54672;46.096;14.470;2023-07-13T07:55:10;27.44;65.77
67868;SHT31;54672;46.096;14.470;2023-07-13T07:57:36;27.38;65.99
67868;SHT31;54672;46.096;14.470;2023-07-13T08:00:02;26.89;67.26
67868;SHT31;54672;46.096;14.470;2023-07-13T08:02:27;26.62;68.27
67868;SHT31;54672;46.096;14.470;2023-07-13T08:04:52;26.48;68.26
67868;SHT31;54672;46.096;14.470;2023-07-13T08:07:18;26.45;68.75
67868;SHT31;54672;46.096;14.470;2023-07-13T08:09:43;26.07;69.18
67868;SHT31;54672;46.096;14.470;2023-07-13T08:12:09;26.01;69.75
67868;SHT31;54672;46.096;14.470;2023-07-13T08:14:34;25.70;70.24
67868;SHT31;54672;46.096;14.470;2023-07-13T08:17:00;25.54;70.56
67868;SHT31;54672;46.096;14.470;2023-07-13T08:19:25;25.36;71.83
67868;SHT31;54672;46.096;14.470;2023-07-13T08:21:51;25.90;70.58
67868;SHT31;54672;46.096;14.470;2023-07-13T08:24:16;25.87;72.46
67868;SHT31;54672;46.096;14.470;2023-07-13T08:26:44;25.90;73.17
67868;SHT31;54672;46.096;14.470;2023-07-13T08:29:10;26.66;70.78
67868;SHT31;54672;46.096;14.470;2023-07-13T08:31:36;27.38;69.13
67868;SHT31;54672;46.096;14.470;2023-07-13T08:34:01;27.37;67.66
67868;SHT31;54672;46.096;14.470;2023-07-13T08:36:26;27.09;68.89
67868;SHT31;54672;46.096;14.470;2023-07-13T08:38:52;27.30;68.70
67868;SHT31;54672;46.096;14.470;2023-07-13T08:41:21;27.40;68.42
67868;SHT31;54672;46.096;14.470;2023-07-13T08:43:51;27.54;66.74
67868;SHT31;54672;46.096;14.470;2023-07-13T08:46:35;27.48;67.24
67868;SHT31;54672;46.096;14.470;2023-07-13T08:49:15;27.75;67.90
67868;SHT31;54672;46.096;14.470;2023-07-13T08:54:24;28.31;66.04
67868;SHT31;54672;46.096;14.470;2023-07-13T08:56:53;28.49;65.70
67868;SHT31;54672;46.096;14.470;2023-07-13T08:59:21;28.52;64.07
67868;SHT31;54672;46.096;14.470;2023-07-13T09:02:20;28.33;64.93
67868;SHT31;54672;46.096;14.470;2023-07-13T09:04:53;28.15;65.15
67868;SHT31;54672;46.096;14.470;2023-07-13T09:10:21;27.53;66.63
67868;SHT31;54672;46.096;14.470;2023-07-13T09:13:18;27.33;66.41
67868;SHT31;54672;46.096;14.470;2023-07-13T09:15:47;26.66;68.65
67868;SHT31;54672;46.096;14.470;2023-07-13T09:18:27;26.17;71.06
67868;SHT31;54672;46.096;14.470;2023-07-13T09:21:27;25.69;72.63
67868;SHT31;54672;46.096;14.470;2023-07-13T09:23:58;25.81;71.05
67868;SHT31;54672;46.096;14.470;2023-07-13T09:26:28;25.97;71.44
67868;SHT31;54672;46.096;14.470;2023-07-13T09:28:59;26.18;70.80
67868;SHT31;54672;46.096;14.470;2023-07-13T09:31:34;26.42;69.00
67868;SHT31;54672;46.096;14.470;2023-07-13T09:34:00;26.35;69.78
67868;SHT31;54672;46.096;14.470;2023-07-13T09:36:32;26.55;68.78
67868;SHT31;54672;46.096;14.470;2023-07-13T09:44:38;26.78;67.35
67868;SHT31;54672;46.096;14.470;2023-07-13T09:47:15;27.07;66.09
67868;SHT31;54672;46.096;14.470;2023-07-13T09:49:41;27.37;66.00
67868;SHT31;54672;46.096;14.470;2023-07-13T09:52:12;25.66;71.48
67868;SHT31;54672;46.096;14.470;2023-07-13T09:54:37;25.60;73.01
67868;SHT31;54672;46.096;14.470;2023-07-13T09:57:12;25.47;72.12
67868;SHT31;54672;46.096;14.470;2023-07-13T09:59:45;25.38;72.79
67868;SHT31;54672;46.096;14.470;2023-07-13T10:02:35;25.07;73.95
67868;SHT31;54672;46.096;14.470;2023-07-13T10:05:11;24.33;76.11
67868;SHT31;54672;46.096;14.470;2023-07-13T10:07:43;24.44;75.91
67868;SHT31;54672;46.096;14.470;2023-07-13T10:10:17;24.67;74.77
67868;SHT31;54672;46.096;14.470;2023-07-13T10:12:44;25.09;73.47
67868;SHT31;54672;46.096;14.470;2023-07-13T10:15:16;25.32;72.64
67868;SHT31;54672;46.096;14.470;2023-07-13T10:17:42;25.49;74.06
67868;SHT31;54672;46.096;14.470;2023-07-13T10:20:09;25.74;74.86
67868;SHT31;54672;46.096;14.470;2023-07-13T10:23:00;26.00;73.39
67868;SHT31;54672;46.096;14.470;2023-07-13T10:25:31;26.22;72.36
67868;SHT31;54672;46.096;14.470;2023-07-13T10:30:56;26.21;72.85
67868;SHT31;54672;46.096;14.470;2023-07-13T10:33:23;26.08;73.00
67868;SHT31;54672;46.096;14.470;2023-07-13T10:35:51;26.00;72.49
67868;SHT31;54672;46.096;14.470;2023-07-13T10:38:21;26.08;72.27
67868;SHT31;54672;46.096;14.470;2023-07-13T10:43:28;25.53;73.51
67868;SHT31;54672;46.096;14.470;2023-07-13T10:45:56;25.18;75.52
67868;SHT31;54672;46.096;14.470;2023-07-13T10:48:23;25.02;76.33
67868;SHT31;54672;46.096;14.470;2023-07-13T10:50:50;24.70;78.59
67868;SHT31;54672;46.096;14.470;2023-07-13T10:53:32;24.67;76.62
67868;SHT31;54672;46.096;14.470;2023-07-13T10:56:01;24.63;76.77
67868;SHT31;54672;46.096;14.470;2023-07-13T10:58:38;24.47;78.14
67868;SHT31;54672;46.096;14.470;2023-07-13T11:03:36;24.33;78.36
67868;SHT31;54672;46.096;14.470;2023-07-13T11:06:29;24.19;79.13
67868;SHT31;54672;46.096;14.470;2023-07-13T11:08:58;24.09;79.61
67868;SHT31;54672;46.096;14.470;2023-07-13T11:18:47;23.63;83.65
67868;SHT31;54672;46.096;14.470;2023-07-13T11:21:14;23.71;82.86
67868;SHT31;54672;46.096;14.470;2023-07-13T11:23:44;23.69;82.78
67868;SHT31;54672;46.096;14.470;2023-07-13T11:26:38;23.49;82.69
67868;SHT31;54672;46.096;14.470;2023-07-13T11:31:55;23.10;85.79
67868;SHT31;54672;46.096;14.470;2023-07-13T11:34:30;23.01;85.11
67868;SHT31;54672;46.096;14.470;2023-07-13T11:36:58;22.90;85.89
67868;SHT31;54672;46.096;14.470;2023-07-13T11:39:39;22.80;86.94
67868;SHT31;54672;46.096;14.470;2023-07-13T11:42:10;22.74;86.05
67868;SHT31;54672;46.096;14.470;2023-07-13T11:44:42;22.76;86.08
67868;SHT31;54672;46.096;14.470;2023-07-13T11:47:10;22.80;88.46
67868;SHT31;54672;46.096;14.470;2023-07-13T11:49:44;22.86;90.13
67868;SHT31;54672;46.096;14.470;2023-07-13T11:52:15;22.79;91.37
67868;SHT31;54672;46.096;14.470;2023-07-13T11:54:49;22.56;91.77
67868;SHT31;54672;46.096;14.470;2023-07-13T11:57:27;21.91;92.92
67868;SHT31;54672;46.096;14.470;2023-07-13T11:59:54;21.82;93.77
67868;SHT31;54672;46.096;14.470;2023-07-13T12:02:40;21.74;95.59
67868;SHT31;54672;46.096;14.470;2023-07-13T12:05:10;21.57;94.35
67868;SHT31;54672;46.096;14.470;2023-07-13T12:07:37;21.26;93.58
67868;SHT31;54672;46.096;14.470;2023-07-13T12:10:25;21.19;96.92
67868;SHT31;54672;46.096;14.470;2023-07-13T12:13:05;20.95;97.43
67868;SHT31;54672;46.096;14.470;2023-07-13T12:15:41;20.54;94.89
67868;SHT31;54672;46.096;14.470;2023-07-13T12:18:14;20.45;95.74
67868;SHT31;54672;46.096;14.470;2023-07-13T12:20:40;20.21;95.26
67868;SHT31;54672;46.096;14.470;2023-07-13T12:23:20;20.17;96.13
67868;SHT31;54672;46.096;14.470;2023-07-13T12:25:47;19.84;96.69
67868;SHT31;54672;46.096;14.470;2023-07-13T12:28:38;19.77;96.84
67868;SHT31;54672;46.096;14.470;2023-07-13T12:31:07;19.84;97.13
67868;SHT31;54672;46.096;14.470;2023-07-13T12:33:33;19.97;97.73
67868;SHT31;54672;46.096;14.470;2023-07-13T12:36:04;20.01;97.12
67868;SHT31;54672;46.096;14.470;2023-07-13T12:38:31;20.03;96.02
67868;SHT31;54672;46.096;14.470;2023-07-13T12:40:57;20.10;95.70
67868;SHT31;54672;46.096;14.470;2023-07-13T12:43:23;20.18;96.54
67868;SHT31;54672;46.096;14.470;2023-07-13T12:46:18;20.37;96.46
67868;SHT31;54672;46.096;14.470;2023-07-13T12:48:48;20.47;95.59
67868;SHT31;54672;46.096;14.470;2023-07-13T12:51:14;20.49;95.80
67868;SHT31;54672;46.096;14.470;2023-07-13T12:53:43;20.44;95.25
67868;SHT31;54672;46.096;14.470;2023-07-13T12:56:18;20.69;96.22
67868;SHT31;54672;46.096;14.470;2023-07-13T12:58:45;20.82;94.10
67868;SHT31;54672;46.096;14.470;2023-07-13T13:01:14;20.68;94.96
67868;SHT31;54672;46.096;14.470;2023-07-13T13:03:49;20.61;95.34
67868;SHT31;54672;46.096;14.470;2023-07-13T13:08:46;21.07;95.45
67868;SHT31;54672;46.096;14.470;2023-07-13T13:11:20;21.27;95.97
67868;SHT31;54672;46.096;14.470;2023-07-13T13:13:46;21.33;94.94
67868;SHT31;54672;46.096;14.470;2023-07-13T13:16:31;20.76;95.83
67868;SHT31;54672;46.096;14.470;2023-07-13T13:18:59;20.44;97.68
67868;SHT31;54672;46.096;14.470;2023-07-13T13:21:27;20.49;96.72
67868;SHT31;54672;46.096;14.470;2023-07-13T13:23:53;20.71;96.40
67868;SHT31;54672;46.096;14.470;2023-07-13T13:26:23;20.79;95.67
67868;SHT31;54672;46.096;14.470;2023-07-13T13:28:49;20.98;96.21
67868;SHT31;54672;46.096;14.470;2023-07-13T13:31:14;21.03;95.45
67868;SHT31;54672;46.096;14.470;2023-07-13T13:33:45;21.27;95.77
67868;SHT31;54672;46.096;14.470;2023-07-13T13:36:16;21.53;95.20
67868;SHT31;54672;46.096;14.470;2023-07-13T13:38:42;21.68;94.77
67868;SHT31;54672;46.096;14.470;2023-07-13T13:41:10;21.91;94.03
67868;SHT31;54672;46.096;14.470;2023-07-13T13:43:36;22.13;93.40
67868;SHT31;54672;46.096;14.470;2023-07-13T13:46:01;22.32;92.23
67868;SHT31;54672;46.096;14.470;2023-07-13T13:48:32;22.46;91.60
67868;SHT31;54672;46.096;14.470;2023-07-13T13:50:59;22.49;90.81
67868;SHT31;54672;46.096;14.470;2023-07-13T13:53:25;22.64;90.65
67868;SHT31;54672;46.096;14.470;2023-07-13T13:55:51;22.62;90.81
67868;SHT31;54672;46.096;14.470;2023-07-13T13:58:18;22.31;91.02
67868;SHT31;54672;46.096;14.470;2023-07-13T14:00:44;22.50;91.03
67868;SHT31;54672;46.096;14.470;2023-07-13T14:03:15;22.60;91.04
67868;SHT31;54672;46.096;14.470;2023-07-13T14:05:42;22.50;90.80
67868;SHT31;54672;46.096;14.470;2023-07-13T14:08:26;23.25;88.49
67868;SHT31;54672;46.096;14.470;2023-07-13T14:10:53;23.28;88.18
67868;SHT31;54672;46.096;14.470;2023-07-13T14:13:22;23.12;87.21
67868;SHT31;54672;46.096;14.470;2023-07-13T14:15:51;22.83;89.02
67868;SHT31;54672;46.096;14.470;2023-07-13T14:18:17;22.67;89.04
67868;SHT31;54672;46.096;14.470;2023-07-13T14:20:48;22.31;91.19
67868;SHT31;54672;46.096;14.470;2023-07-13T14:23:15;22.70;90.12
67868;SHT31;54672;46.096;14.470;2023-07-13T14:25:50;22.96;88.67
67868;SHT31;54672;46.096;14.470;2023-07-13T14:28:24;23.14;89.24
67868;SHT31;54672;46.096;14.470;2023-07-13T14:30:51;22.57;90.46
67868;SHT31;54672;46.096;14.470;2023-07-13T14:33:17;22.26;90.45
67868;SHT31;54672;46.096;14.470;2023-07-13T14:35:42;21.84;91.97
67868;SHT31;54672;46.096;14.470;2023-07-13T14:38:11;21.44;92.61
67868;SHT31;54672;46.096;14.470;2023-07-13T14:40:37;21.33;93.54
67868;SHT31;54672;46.096;14.470;2023-07-13T14:43:03;21.34;93.46
67868;SHT31;54672;46.096;14.470;2023-07-13T14:45:30;21.54;93.69
67868;SHT31;54672;46.096;14.470;2023-07-13T14:47:57;21.60;92.29
67868;SHT31;54672;46.096;14.470;2023-07-13T14:50:31;21.64;93.08
67868;SHT31;54672;46.096;14.470;2023-07-13T14:52:58;21.68;93.43
67868;SHT31;54672;46.096;14.470;2023-07-13T14:55:23;21.63;93.40
67868;SHT31;54672;46.096;14.470;2023-07-13T14:57:51;21.40;93.20
67868;SHT31;54672;46.096;14.470;2023-07-13T15:00:19;21.32;92.91
67868;SHT31;54672;46.096;14.470;2023-07-13T15:02:49;21.37;94.37
67868;SHT31;54672;46.096;14.470;2023-07-13T15:05:20;21.23;94.88
67868;SHT31;54672;46.096;14.470;2023-07-13T15:07:46;21.29;94.22
67868;SHT31;54672;46.096;14.470;2023-07-13T15:10:21;21.29;94.31
67868;SHT31;54672;46.096;14.470;2023-07-13T15:12:47;21.29;95.07
67868;SHT31;54672;46.096;14.470;2023-07-13T15:15:12;21.26;95.65
67868;SHT31;54672;46.096;14.470;2023-07-13T15:17:40;21.24;96.25
67868;SHT31;54672;46.096;14.470;2023-07-13T15:22:44;20.73;98.40
67868;SHT31;54672;46.096;14.470;2023-07-13T15:25:21;20.54;97.83
67868;SHT31;54672;46.096;14.470;2023-07-13T15:27:47;20.54;98.38
67868;SHT31;54672;46.096;14.470;2023-07-13T15:30:14;20.54;99.63
67868;SHT31;54672;46.096;14.470;2023-07-13T15:32:41;20.52;99.90
67868;SHT31;54672;46.096;14.470;2023-07-13T15:35:15;20.32;99.99
67868;SHT31;54672;46.096;14.470;2023-07-13T15:37:41;20.25;99.99
67868;SHT31;54672;46.096;14.470;2023-07-13T15:40:07;20.13;99.99
67868;SHT31;54672;46.096;14.470;2023-07-13T15:42:33;20.07;99.99
67868;SHT31;54672;46.096;14.470;2023-07-13T15:45:01;19.86;99.06
67868;SHT31;54672;46.096;14.470;2023-07-13T15:47:27;19.69;99.99
67868;SHT31;54672;46.096;14.470;2023-07-13T15:49:52;19.74;99.99
67868;SHT31;54672;46.096;14.470;2023-07-13T15:52:22;19.79;99.99
67868;SHT31;54672;46.096;14.470;2023-07-13T15:54:48;19.84;99.99
67868;SHT31;54672;46.096;14.470;2023-07-13T15:57:14;19.77;99.99
67868;SHT31;54672;46.096;14.470;2023-07-13T15:59:40;19.66;99.99
67868;SHT31;54672;46.096;14.470;2023-07-13T16:02:17;19.58;99.99
67868;SHT31;54672;46.096;14.470;2023-07-13T16:04:43;19.63;99.99
67868;SHT31;54672;46.096;14.470;2023-07-13T16:07:10;19.69;99.99
67868;SHT31;54672;46.096;14.470;2023-07-13T16:09:36;19.63;99.99
67868;SHT31;54672;46.096;14.470;2023-07-13T16:12:02;19.61;99.99
67868;SHT31;54672;46.096;14.470;2023-07-13T16:14:27;19.56;99.99
67868;SHT31;54672;46.096;14.470;2023-07-13T16:16:53;19.53;99.99
67868;SHT31;54672;46.096;14.470;2023-07-13T16:19:20;19.55;99.99
67868;SHT31;54672;46.096;14.470;2023-07-13T16:21:54;19.66;99.99
67868;SHT31;54672;46.096;14.470;2023-07-13T16:24:23;19.72;99.99
67868;SHT31;54672;46.096;14.470;2023-07-13T16:26:50;19.61;99.99
67868;SHT31;54672;46.096;14.470;2023-07-13T16:29:25;19.66;99.99
67868;SHT31;54672;46.096;14.470;2023-07-13T16:31:59;19.67;99.99
67868;SHT31;54672;46.096;14.470;2023-07-13T16:34:26;19.72;99.99
67868;SHT31;54672;46.096;14.470;2023-07-13T16:36:52;19.70;99.99
67868;SHT31;54672;46.096;14.470;2023-07-13T16:39:19;19.66;99.99
67868;SHT31;54672;46.096;14.470;2023-07-13T16:41:44;19.58;99.99
67868;SHT31;54672;46.096;14.470;2023-07-13T16:44:15;19.51;99.99
67868;SHT31;54672;46.096;14.470;2023-07-13T16:46:44;19.52;99.99
67868;SHT31;54672;46.096;14.470;2023-07-13T16:49:24;19.52;99.99
67868;SHT31;54672;46.096;14.470;2023-07-13T16:51:51;19.48;99.99
67868;SHT31;54672;46.096;14.470;2023-07-13T16:54:16;19.45;99.99
67868;SHT31;54672;46.096;14.470;2023-07-13T16:56:47;19.48;99.99
67868;SHT31;54672;46.096;14.470;2023-07-13T16:59:16;19.52;99.99
67868;SHT31;54672;46.096;14.470;2023-07-13T17:01:43;19.58;99.99
67868;SHT31;54672;46.096;14.470;2023-07-13T17:04:10;19.62;99.99
67868;SHT31;54672;46.096;14.470;2023-07-13T17:06:35;19.63;99.99
67868;SHT31;54672;46.096;14.470;2023-07-13T17:09:01;19.51;99.99
67868;SHT31;54672;46.096;14.470;2023-07-13T17:11:32;19.41;99.99
67868;SHT31;54672;46.096;14.470;2023-07-13T17:13:58;19.36;99.99
67868;SHT31;54672;46.096;14.470;2023-07-13T17:16:23;19.35;99.99
67868;SHT31;54672;46.096;14.470;2023-07-13T17:18:50;19.31;99.99
67868;SHT31;54672;46.096;14.470;2023-07-13T17:21:16;19.32;99.99
67868;SHT31;54672;46.096;14.470;2023-07-13T17:23:43;19.31;99.99
67868;SHT31;54672;46.096;14.470;2023-07-13T17:26:08;19.33;99.99
67868;SHT31;54672;46.096;14.470;2023-07-13T17:28:35;19.39;99.99
67868;SHT31;54672;46.096;14.470;2023-07-13T17:31:00;19.43;99.99
67868;SHT31;54672;46.096;14.470;2023-07-13T17:33:34;19.39;99.99
67868;SHT31;54672;46.096;14.470;2023-07-13T17:36:03;19.35;99.99
67868;SHT31;54672;46.096;14.470;2023-07-13T17:38:30;19.32;99.99
67868;SHT31;54672;46.096;14.470;2023-07-13T17:40:59;19.29;99.99
67868;SHT31;54672;46.096;14.470;2023-07-13T17:43:25;19.25;99.99
67868;SHT31;54672;46.096;14.470;2023-07-13T17:45:54;19.22;99.99
67868;SHT31;54672;46.096;14.470;2023-07-13T17:48:22;19.21;99.99
67868;SHT31;54672;46.096;14.470;2023-07-13T17:50:48;19.25;99.99
67868;SHT31;54672;46.096;14.470;2023-07-13T17:53:17;19.22;99.99
67868;SHT31;54672;46.096;14.470;2023-07-13T17:55:42;19.21;99.99
67868;SHT31;54672;46.096;14.470;2023-07-13T17:58:08;19.16;99.99
67868;SHT31;54672;46.096;14.470;2023-07-13T18:00:40;18.97;99.99
67868;SHT31;54672;46.096;14.470;2023-07-13T18:03:15;18.84;99.99
67868;SHT31;54672;46.096;14.470;2023-07-13T18:05:44;18.80;99.99
67868;SHT31;54672;46.096;14.470;2023-07-13T18:08:36;18.75;99.99
67868;SHT31;54672;46.096;14.470;2023-07-13T18:11:01;18.75;99.99
67868;SHT31;54672;46.096;14.470;2023-07-13T18:13:28;18.73;99.99
67868;SHT31;54672;46.096;14.470;2023-07-13T18:15:56;18.74;99.99
67868;SHT31;54672;46.096;14.470;2023-07-13T18:18:24;18.74;99.99
67868;SHT31;54672;46.096;14.470;2023-07-13T18:20:51;18.71;99.99
67868;SHT31;54672;46.096;14.470;2023-07-13T18:23:23;18.74;99.99
67868;SHT31;54672;46.096;14.470;2023-07-13T18:25:50;18.75;99.99
67868;SHT31;54672;46.096;14.470;2023-07-13T18:28:18;18.73;99.99
67868;SHT31;54672;46.096;14.470;2023-07-13T18:30:52;18.70;99.99
67868;SHT31;54672;46.096;14.470;2023-07-13T18:33:24;18.70;99.99
67868;SHT31;54672;46.096;14.470;2023-07-13T18:35:50;18.63;99.99
67868;SHT31;54672;46.096;14.470;2023-07-13T18:38:26;18.60;99.99
67868;SHT31;54672;46.096;14.470;2023-07-13T18:40:55;18.60;99.99
67868;SHT31;54672;46.096;14.470;2023-07-13T18:43:22;18.52;99.99
67868;SHT31;54672;46.096;14.470;2023-07-13T18:45:54;18.47;99.99
67868;SHT31;54672;46.096;14.470;2023-07-13T18:48:23;18.47;99.99
67868;SHT31;54672;46.096;14.470;2023-07-13T18:50:50;18.49;99.99
67868;SHT31;54672;46.096;14.470;2023-07-13T18:53:17;18.50;99.99
67868;SHT31;54672;46.096;14.470;2023-07-13T18:55:43;18.52;99.99
67868;SHT31;54672;46.096;14.470;2023-07-13T18:58:12;18.50;99.99
67868;SHT31;54672;46.096;14.470;2023-07-13T19:00:39;18.52;99.99
67868;SHT31;54672;46.096;14.470;2023-07-13T19:03:14;18.47;99.99
67868;SHT31;54672;46.096;14.470;2023-07-13T19:05:40;18.40;99.99
67868;SHT31;54672;46.096;14.470;2023-07-13T19:10:36;18.30;99.99
67868;SHT31;54672;46.096;14.470;2023-07-13T19:13:01;18.33;99.99
67868;SHT31;54672;46.096;14.470;2023-07-13T19:15:31;18.39;99.99
67868;SHT31;54672;46.096;14.470;2023-07-13T19:17:58;18.49;99.99
67868;SHT31;54672;46.096;14.470;2023-07-13T19:20:26;18.53;99.99
67868;SHT31;54672;46.096;14.470;2023-07-13T19:22:57;18.50;99.99
67868;SHT31;54672;46.096;14.470;2023-07-13T19:25:23;18.54;99.99
67868;SHT31;54672;46.096;14.470;2023-07-13T19:27:50;18.57;99.99
67868;SHT31;54672;46.096;14.470;2023-07-13T19:30:16;18.59;99.99
67868;SHT31;54672;46.096;14.470;2023-07-13T19:32:44;18.53;99.99
67868;SHT31;54672;46.096;14.470;2023-07-13T19:35:10;18.52;99.99
67868;SHT31;54672;46.096;14.470;2023-07-13T19:37:35;18.47;99.99
67868;SHT31;54672;46.096;14.470;2023-07-13T19:40:23;18.47;99.99
67868;SHT31;54672;46.096;14.470;2023-07-13T19:42:49;18.43;99.99
67868;SHT31;54672;46.096;14.470;2023-07-13T19:45:18;18.43;99.99
67868;SHT31;54672;46.096;14.470;2023-07-13T19:47:45;18.43;99.99
67868;SHT31;54672;46.096;14.470;2023-07-13T19:50:12;18.43;99.99
67868;SHT31;54672;46.096;14.470;2023-07-13T19:52:43;18.44;99.99
67868;SHT31;54672;46.096;14.470;2023-07-13T19:55:12;18.50;99.99
67868;SHT31;54672;46.096;14.470;2023-07-13T19:57:38;18.47;99.99
67868;SHT31;54672;46.096;14.470;2023-07-13T20:00:13;18.44;99.99
67868;SHT31;54672;46.096;14.470;2023-07-13T20:02:40;18.39;99.99
67868;SHT31;54672;46.096;14.470;2023-07-13T20:05:07;18.37;99.99
67868;SHT31;54672;46.096;14.470;2023-07-13T20:07:32;18.29;99.99
67868;SHT31;54672;46.096;14.470;2023-07-13T20:09:58;18.25;99.99
67868;SHT31;54672;46.096;14.470;2023-07-13T20:12:25;18.21;99.99
67868;SHT31;54672;46.096;14.470;2023-07-13T20:14:53;18.19;99.99
67868;SHT31;54672;46.096;14.470;2023-07-13T20:19:44;18.02;99.99
67868;SHT31;54672;46.096;14.470;2023-07-13T20:22:11;18.02;99.99
67868;SHT31;54672;46.096;14.470;2023-07-13T20:24:37;17.99;99.99
67868;SHT31;54672;46.096;14.470;2023-07-13T20:27:04;17.93;99.99
67868;SHT31;54672;46.096;14.470;2023-07-13T20:29:29;17.88;99.99
67868;SHT31;54672;46.096;14.470;2023-07-13T20:31:55;17.79;99.99
67868;SHT31;54672;46.096;14.470;2023-07-13T20:34:25;17.79;99.99
67868;SHT31;54672;46.096;14.470;2023-07-13T20:36:52;17.77;99.99
67868;SHT31;54672;46.096;14.470;2023-07-13T20:39:19;17.72;99.99
67868;SHT31;54672;46.096;14.470;2023-07-13T20:41:45;17.70;99.99
67868;SHT31;54672;46.096;14.470;2023-07-13T20:44:11;17.67;99.99
67868;SHT31;54672;46.096;14.470;2023-07-13T20:46:37;17.61;99.99
67868;SHT31;54672;46.096;14.470;2023-07-13T20:49:04;17.50;99.99
67868;SHT31;54672;46.096;14.470;2023-07-13T20:51:30;17.44;99.99
67868;SHT31;54672;46.096;14.470;2023-07-13T20:53:57;17.47;99.99
67868;SHT31;54672;46.096;14.470;2023-07-13T20:56:26;17.44;99.99
67868;SHT31;54672;46.096;14.470;2023-07-13T20:58:52;17.41;99.99
67868;SHT31;54672;46.096;14.470;2023-07-13T21:01:25;17.43;99.99
67868;SHT31;54672;46.096;14.470;2023-07-13T21:03:58;17.41;99.99
67868;SHT31;54672;46.096;14.470;2023-07-13T21:06:25;17.37;99.99
67868;SHT31;54672;46.096;14.470;2023-07-13T21:08:51;17.33;99.99
67868;SHT31;54672;46.096;14.470;2023-07-13T21:11:16;17.35;99.99
67868;SHT31;54672;46.096;14.470;2023-07-13T21:13:42;17.33;99.99
67868;SHT31;54672;46.096;14.470;2023-07-13T21:18:39;17.24;99.99
67868;SHT31;54672;46.096;14.470;2023-07-13T21:21:05;17.26;99.99
67868;SHT31;54672;46.096;14.470;2023-07-13T21:23:34;17.30;99.99
67868;SHT31;54672;46.096;14.470;2023-07-13T21:26:04;17.28;99.99
67868;SHT31;54672;46.096;14.470;2023-07-13T21:28:37;17.30;99.99
67868;SHT31;54672;46.096;14.470;2023-07-13T21:31:06;17.31;99.99
67868;SHT31;54672;46.096;14.470;2023-07-13T21:33:33;17.30;99.99
67868;SHT31;54672;46.096;14.470;2023-07-13T21:35:59;17.31;99.99
67868;SHT31;54672;46.096;14.470;2023-07-13T21:38:28;17.34;99.99
67868;SHT31;54672;46.096;14.470;2023-07-13T21:40:57;17.34;99.99
67868;SHT31;54672;46.096;14.470;2023-07-13T21:43:24;17.31;99.99
67868;SHT31;54672;46.096;14.470;2023-07-13T21:45:50;17.37;99.99
67868;SHT31;54672;46.096;14.470;2023-07-13T21:48:16;17.34;99.99
67868;SHT31;54672;46.096;14.470;2023-07-13T21:50:43;17.34;99.99
67868;SHT31;54672;46.096;14.470;2023-07-13T21:53:23;17.31;99.99
67868;SHT31;54672;46.096;14.470;2023-07-13T21:55:50;17.33;99.99
67868;SHT31;54672;46.096;14.470;2023-07-13T21:58:24;17.34;99.99
67868;SHT31;54672;46.096;14.470;2023-07-13T22:00:51;17.33;99.99
67868;SHT31;54672;46.096;14.470;2023-07-13T22:03:28;17.34;99.99
67868;SHT31;54672;46.096;14.470;2023-07-13T22:05:54;17.31;99.99
67868;SHT31;54672;46.096;14.470;2023-07-13T22:08:22;17.33;99.99
67868;SHT31;54672;46.096;14.470;2023-07-13T22:10:49;17.40;99.99
67868;SHT31;54672;46.096;14.470;2023-07-13T22:13:15;17.44;99.99
67868;SHT31;54672;46.096;14.470;2023-07-13T22:15:41;17.44;99.99
67868;SHT31;54672;46.096;14.470;2023-07-13T22:18:26;17.44;99.99
67868;SHT31;54672;46.096;14.470;2023-07-13T22:20:52;17.45;99.99
67868;SHT31;54672;46.096;14.470;2023-07-13T22:23:23;17.41;99.99
67868;SHT31;54672;46.096;14.470;2023-07-13T22:25:51;17.43;99.99
67868;SHT31;54672;46.096;14.470;2023-07-13T22:28:19;17.34;99.99
67868;SHT31;54672;46.096;14.470;2023-07-13T22:30:46;17.28;99.99
67868;SHT31;54672;46.096;14.470;2023-07-13T22:33:16;17.26;99.99